Time;durP1;ratioP1;P1;durP2;ratioP2;P2;SDS_P1;SDS_P2;PMS_P1;PMS_P2;Temp;Humidity;BMP_temperature;BMP_pressure;BME280_temperature;BME280_humidity;BME280_pressure;Samples;Min_cycle;Max_cycle;Signal;HPM_P1;HPM_P2
2022/07/19 00:01:34;;;;;;;6.10;5.90;;;;;;;-143.83;100.00;62900.06;5110970;28;20024;-62
2022/07/19 00:04:00;;;;;;;6.22;5.97;;;;;;;-143.83;100.00;62900.06;5112306;28;20030;-62
2022/07/19 00:06:25;;;;;;;6.32;6.03;;;;;;;-143.83;100.00;62900.06;5099053;28;20106;-61
2022/07/19 00:08:51;;;;;;;6.78;6.47;;;;;;;-143.83;100.00;62900.06;5112034;28;20020;-62
2022/07/19 00:11:17;;;;;;;6.07;5.88;;;;;;;-143.83;100.00;62900.06;5112140;28;20034;-62
2022/07/19 00:13:42;;;;;;;6.47;6.18;;;;;;;-143.83;100.00;62900.06;5112100;28;20028;-61
2022/07/19 00:16:08;;;;;;;6.28;6.03;;;;;;;-143.83;100.00;62900.06;5126759;28;20628;-62
2022/07/19 00:18:33;;;;;;;6.40;6.10;;;;;;;-143.83;100.00;62900.06;5098176;28;20034;-63
2022/07/19 00:20:59;;;;;;;6.53;6.22;;;;;;;-143.83;100.00;62900.06;5111948;28;20030;-61
2022/07/19 00:23:24;;;;;;;6.50;6.20;;;;;;;-143.83;100.00;62900.06;5111901;28;20106;-62
2022/07/19 00:25:50;;;;;;;6.32;6.10;;;;;;;-143.83;100.00;62900.06;5110906;28;20497;-62
2022/07/19 00:28:15;;;;;;;6.40;6.10;;;;;;;-143.83;100.00;62900.06;5110691;28;20498;-62
2022/07/19 00:30:41;;;;;;;6.30;6.00;;;;;;;-143.83;100.00;62900.06;5111471;28;20076;-62
2022/07/19 00:33:09;;;;;;;6.40;6.10;;;;;;;-143.83;100.00;62900.06;5112943;28;20081;-62
2022/07/19 00:35:38;;;;;;;6.47;6.18;;;;;;;-143.83;100.00;62900.06;5098036;28;20475;-62
2022/07/19 00:38:06;;;;;;;6.68;6.38;;;;;;;-143.83;100.00;62900.06;5111182;28;20370;-62
2022/07/19 00:40:31;;;;;;;6.40;6.10;;;;;;;-143.83;100.00;62900.06;5120160;28;20079;-62
2022/07/19 00:42:57;;;;;;;6.15;5.95;;;;;;;-143.83;100.00;62900.06;5112171;27;20050;-62
2022/07/19 00:45:22;;;;;;;6.40;6.10;;;;;;;-143.83;100.00;62900.06;5113471;28;20111;-62
2022/07/19 00:47:49;;;;;;;6.45;6.15;;;;;;;-143.83;100.00;62900.06;5115568;28;20027;-62
2022/07/19 00:50:14;;;;;;;6.88;6.57;;;;;;;-143.83;100.00;62900.06;5116306;27;20109;-62
2022/07/19 00:52:40;;;;;;;6.60;6.30;;;;;;;-143.83;100.00;62900.06;5114518;28;20043;-62
2022/07/19 00:55:08;;;;;;;6.47;6.18;;;;;;;-143.83;100.00;62900.06;5107846;28;20032;-62
2022/07/19 00:57:37;;;;;;;6.43;6.13;;;;;;;-143.83;100.00;62900.06;5115948;28;20102;-62
2022/07/19 01:00:06;;;;;;;6.05;5.85;;;;;;;-143.83;100.00;62900.06;5109165;28;20162;-62
2022/07/19 01:02:33;;;;;;;6.32;6.05;;;;;;;-143.83;100.00;62900.06;5108261;28;20020;-62
2022/07/19 01:05:00;;;;;;;6.47;6.18;;;;;;;-143.83;100.00;62900.06;5104929;28;20027;-62
2022/07/19 01:07:26;;;;;;;6.40;6.10;;;;;;;-143.83;100.00;62900.06;5108460;27;20027;-62
2022/07/19 01:09:52;;;;;;;6.60;6.30;;;;;;;-143.83;100.00;62900.06;5107545;28;20096;-63
2022/07/19 01:12:19;;;;;;;6.60;6.30;;;;;;;-143.83;100.00;62900.06;5115441;28;20479;-62
2022/07/19 01:14:44;;;;;;;6.57;6.28;;;;;;;-143.83;100.00;62900.06;5115539;28;20028;-62
2022/07/19 01:17:10;;;;;;;6.50;6.20;;;;;;;-143.83;100.00;62900.06;5115033;28;20509;-62
2022/07/19 01:19:36;;;;;;;6.50;6.20;;;;;;;-143.83;100.00;62900.06;5114827;28;20110;-62
2022/07/19 01:22:01;;;;;;;6.60;6.30;;;;;;;-143.83;100.00;62900.06;5105472;28;20059;-62
2022/07/19 01:24:27;;;;;;;6.50;6.20;;;;;;;-143.83;100.00;62900.06;5115103;27;20046;-62
2022/07/19 01:26:53;;;;;;;6.50;6.20;;;;;;;-143.83;100.00;62900.06;5114430;28;20031;-62
2022/07/19 01:29:18;;;;;;;6.50;6.20;;;;;;;-143.83;100.00;62900.06;5114542;28;20031;-62
2022/07/19 01:31:44;;;;;;;6.53;6.22;;;;;;;-143.83;100.00;62900.06;5114848;28;20026;-61
2022/07/19 01:34:09;;;;;;;6.57;6.28;;;;;;;-143.83;100.00;62900.06;5107138;28;20368;-62
2022/07/19 01:36:35;;;;;;;6.50;6.20;;;;;;;-143.83;100.00;62900.06;5113829;28;20100;-62
2022/07/19 01:39:01;;;;;;;6.68;6.38;;;;;;;-143.83;100.00;62900.06;5094783;28;20036;-61
2022/07/19 01:41:26;;;;;;;6.40;6.10;;;;;;;-143.83;100.00;62900.06;5114551;27;20462;-61
2022/07/19 01:43:52;;;;;;;6.50;6.20;;;;;;;-143.83;100.00;62900.06;5114742;28;20417;-62
2022/07/19 01:46:17;;;;;;;6.32;6.03;;;;;;;-143.83;100.00;62900.06;5114832;28;20386;-62
2022/07/19 01:48:43;;;;;;;6.70;6.40;;;;;;;-143.83;100.00;62900.06;5102951;28;20031;-62
2022/07/19 01:51:08;;;;;;;6.60;6.30;;;;;;;-143.83;100.00;62900.06;5113610;28;20024;-62
2022/07/19 01:53:34;;;;;;;6.57;6.28;;;;;;;-143.83;100.00;62900.06;5114904;28;20027;-63
2022/07/19 01:56:03;;;;;;;6.50;6.20;;;;;;;-143.83;100.00;62900.06;5105225;28;20020;-63
2022/07/19 01:58:28;;;;;;;6.50;6.20;;;;;;;-143.83;100.00;62900.06;5117314;27;20024;-62
2022/07/19 02:00:54;;;;;;;6.63;6.32;;;;;;;-143.83;100.00;62900.06;5114914;28;20022;-62
2022/07/19 02:03:19;;;;;;;6.53;6.22;;;;;;;-143.83;100.00;62900.06;5114342;27;20429;-62
2022/07/19 02:05:45;;;;;;;6.30;6.03;;;;;;;-143.83;100.00;62900.06;5114175;28;20027;-61
2022/07/19 02:08:10;;;;;;;6.50;6.20;;;;;;;-143.83;100.00;62900.06;5114152;28;20548;-61
2022/07/19 02:10:36;;;;;;;6.53;6.22;;;;;;;-143.83;100.00;62900.06;5109401;27;20046;-62
2022/07/19 02:13:01;;;;;;;6.60;6.30;;;;;;;-143.83;100.00;62900.06;5096937;28;20040;-62
2022/07/19 02:15:27;;;;;;;6.45;6.15;;;;;;;-143.83;100.00;62900.06;5114162;27;20077;-62
2022/07/19 02:17:52;;;;;;;6.55;6.25;;;;;;;-143.83;100.00;62900.06;5106089;28;20077;-62
2022/07/19 02:20:18;;;;;;;6.50;6.20;;;;;;;-143.83;100.00;62900.06;5093902;28;20060;-62
2022/07/19 02:22:44;;;;;;;6.38;6.07;;;;;;;-143.83;100.00;62900.06;5111347;28;20075;-62
2022/07/19 02:25:10;;;;;;;6.78;6.47;;;;;;;-143.83;100.00;62900.06;5108312;28;20057;-62
2022/07/19 02:27:36;;;;;;;6.60;6.30;;;;;;;-143.83;100.00;62900.06;5110395;28;20050;-62
2022/07/19 02:30:03;;;;;;;6.75;6.45;;;;;;;-143.83;100.00;62900.06;5102181;28;20471;-62
2022/07/19 02:32:28;;;;;;;6.43;6.13;;;;;;;-143.83;100.00;62900.06;5117371;27;20439;-62
2022/07/19 02:34:54;;;;;;;6.60;6.30;;;;;;;-143.83;100.00;62900.06;5112730;28;20099;-62
2022/07/19 02:37:19;;;;;;;6.50;6.20;;;;;;;-143.83;100.00;62900.06;5126710;27;20694;-62
2022/07/19 02:39:45;;;;;;;6.47;6.18;;;;;;;-143.83;100.00;62900.06;5110651;28;20066;-61
2022/07/19 02:42:10;;;;;;;6.38;6.07;;;;;;;-143.83;100.00;62900.06;5112156;28;20039;-62
2022/07/19 02:44:36;;;;;;;6.60;6.30;;;;;;;-143.83;100.00;62900.06;5116514;27;20046;-62
2022/07/19 02:47:02;;;;;;;6.40;6.10;;;;;;;-143.83;100.00;62900.06;5123158;27;20483;-61
2022/07/19 02:49:27;;;;;;;6.60;6.30;;;;;;;-143.83;100.00;62900.06;5113919;27;20027;-61
2022/07/19 02:51:53;;;;;;;6.60;6.30;;;;;;;-143.83;100.00;62900.06;5104812;28;20030;-61
2022/07/19 02:54:18;;;;;;;6.47;6.18;;;;;;;-143.83;100.00;62900.06;5107641;28;20118;-61
2022/07/19 02:56:44;;;;;;;6.60;6.30;;;;;;;-143.83;100.00;62900.06;5112461;28;20019;-62
2022/07/19 02:59:09;;;;;;;6.55;6.25;;;;;;;-143.83;100.00;62900.06;5099760;28;20448;-62
2022/07/19 03:01:35;;;;;;;6.38;6.07;;;;;;;-143.83;100.00;62900.06;5120118;27;20019;-62
2022/07/19 03:04:00;;;;;;;6.50;6.20;;;;;;;-143.83;100.00;62900.06;5113230;27;20110;-62
2022/07/19 03:06:26;;;;;;;6.93;6.63;;;;;;;-143.83;100.00;62900.06;5112190;28;20525;-62
2022/07/19 03:08:51;;;;;;;6.45;6.15;;;;;;;-143.83;100.00;62900.06;5098219;28;20019;-62
2022/07/19 03:11:17;;;;;;;6.70;6.40;;;;;;;-143.83;100.00;62900.06;5112828;28;20031;-62
2022/07/19 03:13:42;;;;;;;6.55;6.25;;;;;;;-143.83;100.00;62900.06;5117169;27;20041;-62
2022/07/19 03:16:08;;;;;;;6.43;6.13;;;;;;;-143.83;100.00;62900.06;5112822;28;20016;-62
2022/07/19 03:18:34;;;;;;;6.70;6.40;;;;;;;-143.83;100.00;62900.06;5105548;28;20019;-62
2022/07/19 03:21:00;;;;;;;6.35;6.07;;;;;;;-143.83;100.00;62900.06;5104736;28;20035;-62
2022/07/19 03:23:27;;;;;;;6.60;6.30;;;;;;;-143.83;100.00;62900.06;5112648;27;20019;-62
2022/07/19 03:25:53;;;;;;;6.57;6.28;;;;;;;-143.83;100.00;62900.06;5112685;28;20035;-62
2022/07/19 03:28:18;;;;;;;6.65;6.35;;;;;;;-143.83;100.00;62900.06;5112822;28;20024;-62
2022/07/19 03:30:44;;;;;;;6.80;6.50;;;;;;;-143.83;100.00;62900.06;5112404;28;20418;-62
2022/07/19 03:33:10;;;;;;;6.60;6.30;;;;;;;-143.83;100.00;62900.06;5111026;28;20015;-62
2022/07/19 03:35:36;;;;;;;6.88;6.57;;;;;;;-143.83;100.00;62900.06;5100743;28;20429;-62
2022/07/19 03:38:01;;;;;;;6.80;6.50;;;;;;;-143.83;100.00;62900.06;5107615;27;20032;-62
2022/07/19 03:40:27;;;;;;;6.90;6.60;;;;;;;-143.83;100.00;62900.06;5112356;27;20043;-62
2022/07/19 03:42:52;;;;;;;6.78;6.47;;;;;;;-143.83;100.00;62900.06;5112398;28;20027;-62
2022/07/19 03:45:18;;;;;;;6.88;6.57;;;;;;;-143.83;100.00;62900.06;5112246;28;20024;-62
2022/07/19 03:47:43;;;;;;;6.70;6.40;;;;;;;-143.83;100.00;62900.06;5111172;28;20031;-62
2022/07/19 03:50:09;;;;;;;6.70;6.40;;;;;;;-143.83;100.00;62900.06;5105220;28;20031;-62
2022/07/19 03:52:35;;;;;;;6.78;6.47;;;;;;;-143.83;100.00;62900.06;5131595;27;20047;-62
2022/07/19 03:55:00;;;;;;;6.90;6.60;;;;;;;-143.83;100.00;62900.06;5113487;27;20050;-62
2022/07/19 03:57:26;;;;;;;6.88;6.57;;;;;;;-143.83;100.00;62900.06;5114589;27;20089;-62
2022/07/19 03:59:51;;;;;;;6.90;6.60;;;;;;;-143.83;100.00;62900.06;5110593;28;20032;-62
2022/07/19 04:02:17;;;;;;;6.97;6.68;;;;;;;-143.83;100.00;62900.06;5098957;28;20051;-62
2022/07/19 04:04:43;;;;;;;7.05;6.75;;;;;;;-143.83;100.00;62900.06;5107215;28;20391;-62
2022/07/19 04:07:09;;;;;;;7.20;6.90;;;;;;;-143.83;100.00;62900.06;5111778;28;20433;-63
2022/07/19 04:09:34;;;;;;;6.93;6.63;;;;;;;-143.83;100.00;62900.06;5112015;28;20020;-62
2022/07/19 04:12:00;;;;;;;6.72;6.43;;;;;;;-143.83;100.00;62900.06;5103069;28;20062;-61
2022/07/19 04:14:25;;;;;;;7.10;6.80;;;;;;;-143.83;100.00;62900.06;5116612;28;20058;-61
2022/07/19 04:16:51;;;;;;;7.10;6.80;;;;;;;-143.83;100.00;62900.06;5112095;28;20023;-61
2022/07/19 04:19:16;;;;;;;7.20;6.90;;;;;;;-143.83;100.00;62900.06;5104148;28;20403;-61
2022/07/19 04:21:42;;;;;;;7.30;7.00;;;;;;;-143.83;100.00;62900.06;5096324;28;20106;-61
2022/07/19 04:24:07;;;;;;;7.20;6.90;;;;;;;-143.83;100.00;62900.06;5115769;28;20031;-61
2022/07/19 04:26:33;;;;;;;7.28;6.97;;;;;;;-143.83;100.00;62900.06;5115977;28;20173;-62
2022/07/19 04:28:58;;;;;;;7.50;7.20;;;;;;;-143.83;100.00;62900.06;5110541;28;20042;-62
2022/07/19 04:31:24;;;;;;;7.38;7.07;;;;;;;-143.83;100.00;62900.06;5116825;27;20501;-62
2022/07/19 04:33:49;;;;;;;7.38;7.07;;;;;;;-143.83;100.00;62900.06;5119301;27;20035;-62
2022/07/19 04:36:15;;;;;;;7.40;7.10;;;;;;;-143.83;100.00;62900.06;5114671;27;20495;-62
2022/07/19 04:38:40;;;;;;;7.40;7.10;;;;;;;-143.83;100.00;62900.06;5127466;27;20131;-63
2022/07/19 04:41:05;;;;;;;7.38;7.07;;;;;;;-143.83;100.00;62900.06;5111688;28;20537;-63
2022/07/19 04:43:31;;;;;;;7.28;6.97;;;;;;;-143.83;100.00;62900.06;5107722;28;20155;-62
2022/07/19 04:45:59;;;;;;;7.20;6.90;;;;;;;-143.83;100.00;62900.06;5112145;27;20038;-62
2022/07/19 04:48:28;;;;;;;7.45;7.15;;;;;;;-143.83;100.00;62900.06;5119386;27;20104;-63
2022/07/19 04:50:53;;;;;;;7.10;6.80;;;;;;;-143.83;100.00;62900.06;5108926;27;20032;-63
2022/07/19 04:53:19;;;;;;;7.20;6.90;;;;;;;-143.83;100.00;62900.06;5104116;28;20030;-62
2022/07/19 04:55:44;;;;;;;7.28;6.97;;;;;;;-143.83;100.00;62900.06;5115035;28;20102;-62
2022/07/19 04:58:10;;;;;;;7.20;6.90;;;;;;;-143.83;100.00;62900.06;5112320;27;20039;-62
2022/07/19 05:00:35;;;;;;;7.30;7.00;;;;;;;-143.83;100.00;62900.06;5109417;28;20059;-62
2022/07/19 05:03:01;;;;;;;7.03;6.72;;;;;;;-143.83;100.00;62900.06;5106857;28;20044;-62
2022/07/19 05:05:26;;;;;;;6.90;6.60;;;;;;;-143.83;100.00;62900.06;5113355;27;20024;-61
2022/07/19 05:07:52;;;;;;;7.00;6.70;;;;;;;-143.83;100.00;62900.06;5111561;28;20117;-62
2022/07/19 05:10:17;;;;;;;7.00;6.70;;;;;;;-143.83;100.00;62900.06;5114996;28;20031;-62
2022/07/19 05:12:43;;;;;;;7.10;6.80;;;;;;;-143.83;100.00;62900.06;5112886;28;20394;-62
2022/07/19 05:15:09;;;;;;;7.20;6.90;;;;;;;-143.83;100.00;62900.06;5115191;28;20056;-63
2022/07/19 05:17:36;;;;;;;7.30;7.00;;;;;;;-143.83;100.00;62900.06;5115574;27;20019;-62
2022/07/19 05:20:03;;;;;;;6.97;6.68;;;;;;;-143.83;100.00;62900.06;5117456;27;20069;-62
2022/07/19 05:22:29;;;;;;;7.43;7.13;;;;;;;-143.83;100.00;62900.06;5114745;27;20497;-64
2022/07/19 05:24:55;;;;;;;7.20;6.90;;;;;;;-143.83;100.00;62900.06;5107468;27;20131;-64
2022/07/19 05:27:21;;;;;;;7.05;6.75;;;;;;;-143.83;100.00;62900.06;5118596;27;20023;-63
2022/07/19 05:29:47;;;;;;;7.00;6.70;;;;;;;-143.83;100.00;62900.06;5115207;27;20127;-63
2022/07/19 05:32:13;;;;;;;7.30;7.00;;;;;;;-143.83;100.00;62900.06;5118559;27;20472;-64
2022/07/19 05:34:39;;;;;;;7.10;6.80;;;;;;;-143.83;100.00;62900.06;5114077;27;20023;-63
2022/07/19 05:37:05;;;;;;;7.40;7.10;;;;;;;-143.83;100.00;62900.06;5101747;27;20089;-64
2022/07/19 05:39:30;;;;;;;7.60;7.30;;;;;;;-143.83;100.00;62900.06;5102180;27;20027;-64
2022/07/19 05:41:56;;;;;;;7.53;7.22;;;;;;;-143.83;100.00;62900.06;5108730;28;20051;-64
2022/07/19 05:44:22;;;;;;;7.50;7.20;;;;;;;-143.83;100.00;62900.06;5112653;28;20831;-64
2022/07/19 05:46:48;;;;;;;7.40;7.10;;;;;;;-143.83;100.00;62900.06;5104481;28;20073;-64
2022/07/19 05:49:13;;;;;;;7.30;7.00;;;;;;;-143.83;100.00;62900.06;5127126;27;20097;-64
2022/07/19 05:51:39;;;;;;;7.20;6.90;;;;;;;-143.83;100.00;62900.06;5114273;28;20023;-64
2022/07/19 05:54:06;;;;;;;7.43;7.13;;;;;;;-143.83;100.00;62900.06;5114251;27;20099;-64
2022/07/19 05:56:31;;;;;;;7.20;6.90;;;;;;;-143.83;100.00;62900.06;5113174;27;20125;-63
2022/07/19 05:58:57;;;;;;;7.60;7.30;;;;;;;-143.83;100.00;62900.06;5114253;28;20024;-63
2022/07/19 06:01:23;;;;;;;7.47;7.18;;;;;;;-143.83;100.00;62900.06;5112856;28;20483;-63
2022/07/19 06:03:54;;;;;;;7.35;7.05;;;;;;;-143.83;100.00;62900.06;5101637;28;20032;-64
2022/07/19 06:06:21;;;;;;;7.30;7.00;;;;;;;-143.83;100.00;62900.06;5111285;28;20487;-63
2022/07/19 06:08:47;;;;;;;7.55;7.25;;;;;;;-143.83;100.00;62900.06;5114460;28;20456;-64
2022/07/19 06:11:14;;;;;;;7.38;7.07;;;;;;;-143.83;100.00;62900.06;5111319;27;20034;-63
2022/07/19 06:13:40;;;;;;;7.20;6.90;;;;;;;-143.83;100.00;62900.06;5103858;28;20032;-63
2022/07/19 06:16:06;;;;;;;7.38;7.07;;;;;;;-143.83;100.00;62900.06;5100699;28;20094;-63
2022/07/19 06:18:35;;;;;;;7.28;6.97;;;;;;;-143.83;100.00;62900.06;5109900;27;20164;-63
2022/07/19 06:21:10;;;;;;;7.00;6.70;;;;;;;-143.83;100.00;62900.06;5115935;27;20031;-65
2022/07/19 06:23:37;;;;;;;7.22;6.93;;;;;;;-143.83;100.00;62900.06;5100328;27;20031;-64
2022/07/19 06:26:04;;;;;;;7.40;7.10;;;;;;;-143.83;100.00;62900.06;5116057;27;20028;-65
2022/07/19 06:28:29;;;;;;;7.32;7.03;;;;;;;-143.83;100.00;62900.06;5104704;27;20053;-64
2022/07/19 06:30:55;;;;;;;7.20;6.90;;;;;;;-143.83;100.00;62900.06;5116323;27;20031;-64
2022/07/19 06:33:20;;;;;;;7.28;6.97;;;;;;;-143.83;100.00;62900.06;5112427;27;20178;-63
2022/07/19 06:35:46;;;;;;;7.30;7.00;;;;;;;-143.83;100.00;62900.06;5110500;27;20360;-64
2022/07/19 06:38:12;;;;;;;7.40;7.10;;;;;;;-143.83;100.00;62900.06;5111436;27;20187;-64
2022/07/19 06:40:38;;;;;;;7.60;7.30;;;;;;;-143.83;100.00;62900.06;5114098;27;20044;-64
2022/07/19 06:43:04;;;;;;;7.45;7.15;;;;;;;-143.83;100.00;62900.06;5110148;27;20036;-66
2022/07/19 06:45:30;;;;;;;7.32;7.03;;;;;;;-143.83;100.00;62900.06;5100824;27;20374;-64
2022/07/19 06:47:55;;;;;;;7.60;7.30;;;;;;;-143.83;100.00;62900.06;5108394;27;20309;-63
2022/07/19 06:50:22;;;;;;;7.47;7.18;;;;;;;-143.83;100.00;62900.06;5111453;27;20057;-63
2022/07/19 06:52:47;;;;;;;7.60;7.30;;;;;;;-143.83;100.00;62900.06;5109851;27;20032;-62
2022/07/19 06:55:13;;;;;;;7.45;7.15;;;;;;;-143.83;100.00;62900.06;5100435;28;20043;-63
2022/07/19 06:57:39;;;;;;;7.40;7.10;;;;;;;-143.83;100.00;62900.06;5114550;27;20062;-64
2022/07/19 07:00:07;;;;;;;7.38;7.07;;;;;;;-143.83;100.00;62900.06;5108708;28;20039;-63
2022/07/19 07:02:33;;;;;;;7.63;7.32;;;;;;;-143.83;100.00;62900.06;5098612;27;20502;-63
2022/07/19 07:04:58;;;;;;;7.50;7.20;;;;;;;-143.83;100.00;62900.06;5104665;28;20031;-63
2022/07/19 07:07:24;;;;;;;7.35;7.05;;;;;;;-143.83;100.00;62900.06;5109135;28;21192;-62
2022/07/19 07:09:49;;;;;;;7.40;7.10;;;;;;;-143.83;100.00;62900.06;5108872;28;20110;-63
2022/07/19 07:12:15;;;;;;;7.30;7.00;;;;;;;-143.83;100.00;62900.06;5101997;28;20048;-62
2022/07/19 07:14:40;;;;;;;7.05;6.75;;;;;;;-143.83;100.00;62900.06;5096198;28;20483;-62
2022/07/19 07:17:06;;;;;;;7.38;7.07;;;;;;;-143.83;100.00;62900.06;5102679;28;20036;-65
2022/07/19 07:19:31;;;;;;;7.05;6.75;;;;;;;-143.83;100.00;62900.06;5104847;27;20046;-63
2022/07/19 07:21:59;;;;;;;7.15;6.85;;;;;;;-143.83;100.00;62900.06;5088699;28;20406;-63
2022/07/19 07:24:25;;;;;;;7.25;6.95;;;;;;;-143.83;100.00;62900.06;5106484;27;20050;-62
2022/07/19 07:26:51;;;;;;;7.30;7.00;;;;;;;-143.83;100.00;62900.06;5117440;27;20076;-63
2022/07/19 07:29:17;;;;;;;7.30;7.00;;;;;;;-143.83;100.00;62900.06;5111498;27;20039;-62
2022/07/19 07:31:42;;;;;;;7.50;7.20;;;;;;;-143.83;100.00;62900.06;5103661;27;20491;-63
2022/07/19 07:34:08;;;;;;;7.28;6.97;;;;;;;-143.83;100.00;62900.06;5102894;28;20124;-63
2022/07/19 07:36:33;;;;;;;7.28;6.97;;;;;;;-143.83;100.00;62900.06;5107733;27;20027;-63
2022/07/19 07:38:59;;;;;;;7.30;7.00;;;;;;;-143.83;100.00;62900.06;5107475;27;20119;-63
2022/07/19 07:41:24;;;;;;;7.22;6.93;;;;;;;-143.83;100.00;62900.06;5100469;27;20131;-63
2022/07/19 07:43:50;;;;;;;7.18;6.88;;;;;;;-143.83;100.00;62900.06;5111263;27;20027;-63
2022/07/19 07:46:15;;;;;;;7.43;7.13;;;;;;;-143.83;100.00;62900.06;5099399;28;20118;-62
2022/07/19 07:48:41;;;;;;;7.40;7.10;;;;;;;-143.83;100.00;62900.06;5109721;27;20363;-64
2022/07/19 07:51:06;;;;;;;7.32;7.03;;;;;;;-143.83;100.00;62900.06;5105361;27;20134;-62
2022/07/19 07:53:32;;;;;;;7.38;7.07;;;;;;;-143.83;100.00;62900.06;5098894;28;20028;-64
2022/07/19 07:55:57;;;;;;;7.40;7.10;;;;;;;-143.83;100.00;62900.06;5105620;27;20023;-62
2022/07/19 07:58:23;;;;;;;7.20;6.90;;;;;;;-143.83;100.00;62900.06;5108808;27;20019;-62
2022/07/19 08:00:48;;;;;;;7.00;6.70;;;;;;;-143.83;100.00;62900.06;5108239;28;20208;-63
2022/07/19 08:03:14;;;;;;;7.40;7.10;;;;;;;-143.83;100.00;62900.06;5109589;28;20062;-63
2022/07/19 08:05:39;;;;;;;7.25;6.95;;;;;;;-143.83;100.00;62900.06;5105168;28;20047;-63
2022/07/19 08:08:05;;;;;;;7.10;6.80;;;;;;;-143.83;100.00;62900.06;5104047;28;20089;-63
2022/07/19 08:10:35;;;;;;;7.20;6.90;;;;;;;-143.83;100.00;62900.06;5095468;28;20032;-63
2022/07/19 08:13:00;;;;;;;7.28;6.97;;;;;;;-143.83;100.00;62900.06;5101243;28;20121;-64
2022/07/19 08:15:26;;;;;;;7.32;7.03;;;;;;;-143.83;100.00;62900.06;5114538;28;20047;-64
2022/07/19 08:17:51;;;;;;;7.22;6.93;;;;;;;-143.83;100.00;62900.06;5112707;28;20031;-64
2022/07/19 08:20:17;;;;;;;7.25;6.95;;;;;;;-143.83;100.00;62900.06;5114051;28;20032;-64
2022/07/19 08:22:43;;;;;;;7.30;7.00;;;;;;;-143.83;100.00;62900.06;5100942;28;20028;-64
2022/07/19 08:25:09;;;;;;;7.40;7.10;;;;;;;-143.83;100.00;62900.06;5109825;28;20042;-64
2022/07/19 08:27:34;;;;;;;7.13;6.82;;;;;;;-143.83;100.00;62900.06;5110622;28;20023;-64
2022/07/19 08:30:03;;;;;;;7.13;6.82;;;;;;;-143.83;100.00;62900.06;5104665;28;20073;-64
2022/07/19 08:32:29;;;;;;;7.15;6.85;;;;;;;-143.83;100.00;62900.06;5115779;28;20088;-65
2022/07/19 08:34:54;;;;;;;7.30;7.00;;;;;;;-143.83;100.00;62900.06;5097608;28;20039;-64
2022/07/19 08:37:20;;;;;;;7.45;7.15;;;;;;;-143.83;100.00;62900.06;5109517;28;20487;-64
2022/07/19 08:39:45;;;;;;;7.18;6.88;;;;;;;-143.83;100.00;62900.06;5103990;28;20288;-64
2022/07/19 08:42:11;;;;;;;7.20;6.90;;;;;;;-143.83;100.00;62900.06;5106566;28;20110;-64
2022/07/19 08:44:38;;;;;;;7.35;7.05;;;;;;;-143.83;100.00;62900.06;5105106;28;20036;-64
2022/07/19 08:47:04;;;;;;;7.07;6.78;;;;;;;-143.83;100.00;62900.06;5097009;28;20032;-63
2022/07/19 08:49:30;;;;;;;7.10;6.80;;;;;;;-143.83;100.00;62900.06;5109750;28;20432;-65
2022/07/19 08:51:56;;;;;;;7.30;7.00;;;;;;;-143.83;100.00;62900.06;5106721;28;20029;-65
2022/07/19 08:54:22;;;;;;;7.18;6.88;;;;;;;-143.83;100.00;62900.06;5107727;28;20081;-64
2022/07/19 08:59:31;;;;;;;7.13;6.82;;;;;;;-143.83;100.00;62900.06;5096869;28;20164;-64
2022/07/19 09:01:57;;;;;;;7.20;6.90;;;;;;;-143.83;100.00;62900.06;5112508;28;20564;-64
2022/07/19 09:04:27;;;;;;;7.00;6.70;;;;;;;-143.83;100.00;62900.06;5106186;28;20060;-64
2022/07/19 09:06:55;;;;;;;7.18;6.88;;;;;;;-143.83;100.00;62900.06;5112050;28;20034;-64
2022/07/19 09:09:27;;;;;;;7.10;6.80;;;;;;;-143.83;100.00;62900.06;5113374;28;20016;-64
2022/07/19 09:11:54;;;;;;;7.20;6.90;;;;;;;-143.83;100.00;62900.06;5107999;28;20043;-65
2022/07/19 09:14:32;;;;;;;7.10;6.80;;;;;;;-143.83;100.00;62900.06;5107273;28;20035;-64
2022/07/19 09:17:02;;;;;;;7.03;6.72;;;;;;;-143.83;100.00;62900.06;5112157;27;20408;-63
2022/07/19 09:19:35;;;;;;;7.20;6.90;;;;;;;-143.83;100.00;62900.06;5113977;27;20399;-64
2022/07/19 09:22:07;;;;;;;7.20;6.90;;;;;;;-143.83;100.00;62900.06;5113228;28;20028;-63
2022/07/19 09:24:39;;;;;;;7.20;6.90;;;;;;;-143.83;100.00;62900.06;5104242;28;20036;-64
2022/07/19 09:27:10;;;;;;;7.28;6.97;;;;;;;-143.83;100.00;62900.06;5104771;28;20104;-65
2022/07/19 09:29:41;;;;;;;7.25;6.95;;;;;;;-143.83;100.00;62900.06;5099275;28;20487;-65
2022/07/19 09:32:17;;;;;;;7.20;6.90;;;;;;;-143.83;100.00;62900.06;5113080;28;20475;-64
2022/07/19 09:34:50;;;;;;;7.10;6.80;;;;;;;-143.83;100.00;62900.06;5111953;28;20027;-65
2022/07/19 09:37:19;;;;;;;7.20;6.90;;;;;;;-143.83;100.00;62900.06;5112633;27;20106;-65
2022/07/19 09:39:50;;;;;;;7.00;6.70;;;;;;;-143.83;100.00;62900.06;5113229;28;20015;-66
2022/07/19 09:42:34;;;;;;;7.40;7.10;;;;;;;-143.83;100.00;62900.06;5100266;28;20073;-64
2022/07/19 09:45:03;;;;;;;7.47;7.18;;;;;;;-143.83;100.00;62900.06;5109886;28;20019;-65
2022/07/19 09:47:40;;;;;;;7.10;6.80;;;;;;;-143.83;100.00;62900.06;5113695;27;20382;-63
2022/07/19 09:50:09;;;;;;;7.10;6.80;;;;;;;-143.83;100.00;62900.06;5107563;27;20028;-63
2022/07/19 09:52:35;;;;;;;7.20;6.90;;;;;;;-143.83;100.00;62900.06;5097084;28;20036;-63
2022/07/19 09:55:06;;;;;;;7.00;6.70;;;;;;;-143.83;100.00;62900.06;5111262;27;20031;-63
2022/07/19 09:57:38;;;;;;;7.30;7.00;;;;;;;-143.83;100.00;62900.06;5107373;27;20027;-67
2022/07/19 10:00:05;;;;;;;7.18;6.88;;;;;;;-143.83;100.00;62900.06;5106854;27;20036;-63
2022/07/19 10:02:34;;;;;;;7.00;6.70;;;;;;;-143.83;100.00;62900.06;5109323;27;20047;-63
2022/07/19 10:05:02;;;;;;;7.03;6.72;;;;;;;-143.83;100.00;62900.06;5107592;27;20034;-63
2022/07/19 10:07:28;;;;;;;7.05;6.75;;;;;;;-143.83;100.00;62900.06;5112129;27;20028;-62
2022/07/19 10:09:54;;;;;;;7.20;6.90;;;;;;;-143.83;100.00;62900.06;5097540;27;20047;-63
2022/07/19 10:12:21;;;;;;;7.10;6.80;;;;;;;-143.83;100.00;62900.06;5111778;27;20039;-62
2022/07/19 10:14:47;;;;;;;7.28;6.97;;;;;;;-143.83;100.00;62900.06;5109048;27;20553;-63
2022/07/19 10:17:28;;;;;;;7.20;6.90;;;;;;;-143.83;100.00;62900.06;5113479;27;20115;-63
2022/07/19 10:19:55;;;;;;;7.38;7.07;;;;;;;-143.83;100.00;62900.06;5119728;27;20055;-63
2022/07/19 10:22:25;;;;;;;7.20;6.90;;;;;;;-143.83;100.00;62900.06;5095523;27;20216;-63
2022/07/19 10:24:50;;;;;;;7.00;6.70;;;;;;;-143.83;100.00;62900.06;5103512;27;20054;-63
2022/07/19 10:27:34;;;;;;;6.88;6.57;;;;;;;-143.83;100.00;62900.06;5099163;28;20106;-64
2022/07/19 10:30:12;;;;;;;;;;;;;;;-143.83;100.00;62900.06;5111266;27;20145;-64
2022/07/19 10:32:39;;;;;;;7.10;6.80;;;;;;;-143.83;100.00;62900.06;5108011;27;19919;-62
2022/07/19 10:35:22;;;;;;;7.10;6.80;;;;;;;-143.83;100.00;62900.06;5105884;28;20394;-64
2022/07/19 10:37:54;;;;;;;6.97;6.68;;;;;;;-143.83;100.00;62900.06;5109975;27;20212;-63
2022/07/19 10:40:58;;;;;;;7.30;7.00;;;;;;;-143.83;100.00;62900.06;5102744;28;20189;-63
2022/07/19 10:43:25;;;;;;;;;;;;;;;-143.83;100.00;62900.06;5047066;28;20036;-64
2022/07/19 10:45:56;;;;;;;7.20;6.90;;;;;;;-143.83;100.00;62900.06;5045828;28;19923;-63
2022/07/19 10:48:34;;;;;;;6.90;6.60;;;;;;;-143.83;100.00;62900.06;5068826;28;20044;-64
2022/07/19 10:51:00;;;;;;;7.32;7.03;;;;;;;-143.83;100.00;62900.06;5106024;28;20058;-64
2022/07/19 10:54:00;;;;;;;7.35;7.05;;;;;;;-143.83;100.00;62900.06;5105791;27;20057;-62
2022/07/19 10:56:54;;;;;;;7.15;6.85;;;;;;;-143.83;100.00;62900.06;5107168;27;20039;-64
2022/07/19 10:59:34;;;;;;;7.30;7.00;;;;;;;-143.83;100.00;62900.06;5105750;28;20024;-62
2022/07/19 11:02:01;;;;;;;7.20;6.90;;;;;;;-143.83;100.00;62900.06;5096279;27;20032;-62
2022/07/19 11:04:32;;;;;;;7.38;7.07;;;;;;;-143.83;100.00;62900.06;5102356;27;20166;-62
2022/07/19 11:07:14;;;;;;;7.20;6.90;;;;;;;-143.83;100.00;62900.06;5105349;27;20039;-65
2022/07/19 11:09:42;;;;;;;7.22;6.93;;;;;;;-143.83;100.00;62900.06;5098642;27;20058;-62
2022/07/19 11:12:30;;;;;;;7.18;6.88;;;;;;;-143.83;100.00;62900.06;5114362;27;20081;-63